sensor_id;sensor_type;location;lat;lon;timestamp;temperature;humidity
21592;DHT22;10958;50.892;3.992;2023-07-29T00:00:01;20.20;99.90
21592;DHT22;10958;50.892;3.992;2023-07-29T00:02:26;20.10;99.90
21592;DHT22;10958;50.892;3.992;2023-07-29T00:04:55;20.00;99.90
21592;DHT22;10958;50.892;3.992;2023-07-29T00:07:20;19.70;99.90
21592;DHT22;10958;50.892;3.992;2023-07-29T00:09:46;19.80;99.90
21592;DHT22;10958;50.892;3.992;2023-07-29T00:12:12;19.90;99.90
21592;DHT22;10958;50.892;3.992;2023-07-29T00:14:38;20.20;99.90
21592;DHT22;10958;50.892;3.992;2023-07-29T00:17:03;20.10;99.90
21592;DHT22;10958;50.892;3.992;2023-07-29T00:19:29;20.20;99.90
21592;DHT22;10958;50.892;3.992;2023-07-29T00:21:55;20.10;99.90
21592;DHT22;10958;50.892;3.992;2023-07-29T00:24:20;20.10;99.90
21592;DHT22;10958;50.892;3.992;2023-07-29T00:26:47;19.90;99.90
21592;DHT22;10958;50.892;3.992;2023-07-29T00:29:12;19.90;99.90
21592;DHT22;10958;50.892;3.992;2023-07-29T00:31:38;19.80;99.90
21592;DHT22;10958;50.892;3.992;2023-07-29T00:34:06;19.70;99.90
21592;DHT22;10958;50.892;3.992;2023-07-29T00:36:35;19.70;99.90
21592;DHT22;10958;50.892;3.992;2023-07-29T00:39:01;19.90;99.90
21592;DHT22;10958;50.892;3.992;2023-07-29T00:41:26;19.80;99.90
21592;DHT22;10958;50.892;3.992;2023-07-29T00:43:53;19.70;99.90
21592;DHT22;10958;50.892;3.992;2023-07-29T00:46:20;19.80;99.90
21592;DHT22;10958;50.892;3.992;2023-07-29T00:48:46;19.80;99.90
21592;DHT22;10958;50.892;3.992;2023-07-29T00:51:12;19.60;99.90
21592;DHT22;10958;50.892;3.992;2023-07-29T00:53:38;19.60;99.90
21592;DHT22;10958;50.892;3.992;2023-07-29T00:56:09;19.70;99.90
21592;DHT22;10958;50.892;3.992;2023-07-29T00:58:35;19.80;99.90
21592;DHT22;10958;50.892;3.992;2023-07-29T01:01:00;19.90;99.90
21592;DHT22;10958;50.892;3.992;2023-07-29T01:03:26;19.80;99.90
21592;DHT22;10958;50.892;3.992;2023-07-29T01:08:55;19.90;99.90
21592;DHT22;10958;50.892;3.992;2023-07-29T01:14:49;19.50;99.90
21592;DHT22;10958;50.892;3.992;2023-07-29T01:17:22;19.70;99.90
21592;DHT22;10958;50.892;3.992;2023-07-29T01:20:13;19.60;99.90
21592;DHT22;10958;50.892;3.992;2023-07-29T01:22:45;19.80;99.90
21592;DHT22;10958;50.892;3.992;2023-07-29T01:25:11;20.00;99.90
21592;DHT22;10958;50.892;3.992;2023-07-29T01:27:40;20.10;99.90
21592;DHT22;10958;50.892;3.992;2023-07-29T01:30:08;19.90;99.90
21592;DHT22;10958;50.892;3.992;2023-07-29T01:33:35;20.00;99.90
21592;DHT22;10958;50.892;3.992;2023-07-29T01:40:42;19.90;99.90
21592;DHT22;10958;50.892;3.992;2023-07-29T01:43:08;19.60;99.90
21592;DHT22;10958;50.892;3.992;2023-07-29T01:45:34;19.50;99.90
21592;DHT22;10958;50.892;3.992;2023-07-29T01:48:04;19.50;99.90
21592;DHT22;10958;50.892;3.992;2023-07-29T01:50:33;19.40;99.90
21592;DHT22;10958;50.892;3.992;2023-07-29T01:52:59;19.30;99.90
21592;DHT22;10958;50.892;3.992;2023-07-29T01:55:25;19.50;99.90
21592;DHT22;10958;50.892;3.992;2023-07-29T01:57:50;19.60;99.90
21592;DHT22;10958;50.892;3.992;2023-07-29T02:00:18;19.50;99.90
21592;DHT22;10958;50.892;3.992;2023-07-29T02:02:44;19.40;99.90
21592;DHT22;10958;50.892;3.992;2023-07-29T02:05:09;19.30;99.90
21592;DHT22;10958;50.892;3.992;2023-07-29T02:07:35;19.30;99.90
21592;DHT22;10958;50.892;3.992;2023-07-29T02:10:01;18.90;99.90
21592;DHT22;10958;50.892;3.992;2023-07-29T02:12:26;18.70;99.90
21592;DHT22;10958;50.892;3.992;2023-07-29T02:14:52;18.80;99.90
21592;DHT22;10958;50.892;3.992;2023-07-29T02:17:18;18.80;99.90
21592;DHT22;10958;50.892;3.992;2023-07-29T02:19:44;18.80;99.90
21592;DHT22;10958;50.892;3.992;2023-07-29T02:22:13;18.80;99.90
21592;DHT22;10958;50.892;3.992;2023-07-29T02:24:39;18.80;99.90
21592;DHT22;10958;50.892;3.992;2023-07-29T02:27:06;18.90;99.90
21592;DHT22;10958;50.892;3.992;2023-07-29T02:29:32;18.90;99.90
21592;DHT22;10958;50.892;3.992;2023-07-29T02:32:01;18.90;99.90
21592;DHT22;10958;50.892;3.992;2023-07-29T02:34:26;18.90;99.90
21592;DHT22;10958;50.892;3.992;2023-07-29T02:36:53;19.10;99.90
21592;DHT22;10958;50.892;3.992;2023-07-29T02:39:19;18.80;99.90
21592;DHT22;10958;50.892;3.992;2023-07-29T02:41:44;19.00;99.90
21592;DHT22;10958;50.892;3.992;2023-07-29T02:44:11;19.10;99.90
21592;DHT22;10958;50.892;3.992;2023-07-29T02:46:37;19.30;99.90
21592;DHT22;10958;50.892;3.992;2023-07-29T02:49:03;19.00;99.90
21592;DHT22;10958;50.892;3.992;2023-07-29T02:51:30;18.90;99.90
21592;DHT22;10958;50.892;3.992;2023-07-29T02:53:56;19.00;99.90
21592;DHT22;10958;50.892;3.992;2023-07-29T02:56:21;19.00;99.90
21592;DHT22;10958;50.892;3.992;2023-07-29T02:58:47;19.10;99.90
21592;DHT22;10958;50.892;3.992;2023-07-29T03:01:15;19.10;99.90
21592;DHT22;10958;50.892;3.992;2023-07-29T03:03:46;19.20;99.90
21592;DHT22;10958;50.892;3.992;2023-07-29T03:06:13;18.90;99.90
21592;DHT22;10958;50.892;3.992;2023-07-29T03:08:40;18.70;99.90
21592;DHT22;10958;50.892;3.992;2023-07-29T03:11:07;18.50;99.90
21592;DHT22;10958;50.892;3.992;2023-07-29T03:13:36;18.60;99.90
21592;DHT22;10958;50.892;3.992;2023-07-29T03:18:32;18.50;99.90
21592;DHT22;10958;50.892;3.992;2023-07-29T03:20:58;18.30;99.90
21592;DHT22;10958;50.892;3.992;2023-07-29T03:23:24;18.10;99.90
21592;DHT22;10958;50.892;3.992;2023-07-29T03:25:49;18.20;99.90
21592;DHT22;10958;50.892;3.992;2023-07-29T03:28:17;18.30;99.90
21592;DHT22;10958;50.892;3.992;2023-07-29T03:30:42;18.20;99.90
21592;DHT22;10958;50.892;3.992;2023-07-29T03:33:08;18.20;99.90
21592;DHT22;10958;50.892;3.992;2023-07-29T03:35:35;18.10;99.90
21592;DHT22;10958;50.892;3.992;2023-07-29T03:38:00;18.20;99.90
21592;DHT22;10958;50.892;3.992;2023-07-29T03:40:26;18.30;99.90
21592;DHT22;10958;50.892;3.992;2023-07-29T03:42:52;18.30;99.90
21592;DHT22;10958;50.892;3.992;2023-07-29T03:45:17;18.40;99.90
21592;DHT22;10958;50.892;3.992;2023-07-29T03:47:46;18.50;99.90
21592;DHT22;10958;50.892;3.992;2023-07-29T03:50:12;18.30;99.90
21592;DHT22;10958;50.892;3.992;2023-07-29T03:52:40;18.40;99.90
21592;DHT22;10958;50.892;3.992;2023-07-29T03:55:06;18.30;99.90
21592;DHT22;10958;50.892;3.992;2023-07-29T03:57:31;18.40;99.90
21592;DHT22;10958;50.892;3.992;2023-07-29T04:00:02;18.30;99.90
21592;DHT22;10958;50.892;3.992;2023-07-29T04:02:27;18.20;99.90
21592;DHT22;10958;50.892;3.992;2023-07-29T04:04:53;18.10;99.90
21592;DHT22;10958;50.892;3.992;2023-07-29T04:07:19;18.00;99.90
21592;DHT22;10958;50.892;3.992;2023-07-29T04:09:44;17.90;99.90
21592;DHT22;10958;50.892;3.992;2023-07-29T04:12:10;17.90;99.90
21592;DHT22;10958;50.892;3.992;2023-07-29T04:14:36;18.00;99.90
21592;DHT22;10958;50.892;3.992;2023-07-29T04:17:02;18.10;99.90
21592;DHT22;10958;50.892;3.992;2023-07-29T04:19:28;18.20;99.90
21592;DHT22;10958;50.892;3.992;2023-07-29T04:21:54;18.30;99.90
21592;DHT22;10958;50.892;3.992;2023-07-29T04:24:20;18.00;99.90
21592;DHT22;10958;50.892;3.992;2023-07-29T04:26:48;17.90;99.90
21592;DHT22;10958;50.892;3.992;2023-07-29T04:29:15;17.90;99.90
21592;DHT22;10958;50.892;3.992;2023-07-29T04:31:40;17.80;99.90
21592;DHT22;10958;50.892;3.992;2023-07-29T04:34:07;17.90;99.90
21592;DHT22;10958;50.892;3.992;2023-07-29T04:36:33;18.00;99.90
21592;DHT22;10958;50.892;3.992;2023-07-29T04:38:58;17.90;99.90
21592;DHT22;10958;50.892;3.992;2023-07-29T04:41:24;18.00;99.90
21592;DHT22;10958;50.892;3.992;2023-07-29T04:43:50;17.90;99.90
21592;DHT22;10958;50.892;3.992;2023-07-29T04:46:16;17.90;99.90
21592;DHT22;10958;50.892;3.992;2023-07-29T04:48:42;17.90;99.90
21592;DHT22;10958;50.892;3.992;2023-07-29T04:51:08;18.00;99.90
21592;DHT22;10958;50.892;3.992;2023-07-29T04:53:34;18.10;99.90
21592;DHT22;10958;50.892;3.992;2023-07-29T04:56:02;18.10;99.90
21592;DHT22;10958;50.892;3.992;2023-07-29T04:58:28;18.00;99.90
21592;DHT22;10958;50.892;3.992;2023-07-29T05:00:55;18.00;99.90
21592;DHT22;10958;50.892;3.992;2023-07-29T05:03:22;18.00;99.90
21592;DHT22;10958;50.892;3.992;2023-07-29T05:05:50;18.00;99.90
21592;DHT22;10958;50.892;3.992;2023-07-29T05:08:18;18.00;99.90
21592;DHT22;10958;50.892;3.992;2023-07-29T05:10:44;18.00;99.90
21592;DHT22;10958;50.892;3.992;2023-07-29T05:13:13;18.20;99.90
21592;DHT22;10958;50.892;3.992;2023-07-29T05:15:39;18.30;99.90
21592;DHT22;10958;50.892;3.992;2023-07-29T05:18:05;18.50;99.90
21592;DHT22;10958;50.892;3.992;2023-07-29T05:20:30;18.50;99.90
21592;DHT22;10958;50.892;3.992;2023-07-29T05:22:56;18.60;99.90
21592;DHT22;10958;50.892;3.992;2023-07-29T05:25:26;18.60;99.90
21592;DHT22;10958;50.892;3.992;2023-07-29T05:27:52;18.70;99.90
21592;DHT22;10958;50.892;3.992;2023-07-29T05:30:18;18.90;99.90
21592;DHT22;10958;50.892;3.992;2023-07-29T05:32:44;18.70;99.90
21592;DHT22;10958;50.892;3.992;2023-07-29T05:35:12;18.60;99.90
21592;DHT22;10958;50.892;3.992;2023-07-29T05:37:38;18.50;99.90
21592;DHT22;10958;50.892;3.992;2023-07-29T05:40:07;18.70;99.90
21592;DHT22;10958;50.892;3.992;2023-07-29T05:42:36;18.70;99.90
21592;DHT22;10958;50.892;3.992;2023-07-29T05:45:05;18.90;99.90
21592;DHT22;10958;50.892;3.992;2023-07-29T05:47:31;19.00;99.90
21592;DHT22;10958;50.892;3.992;2023-07-29T05:49:57;19.20;99.90
21592;DHT22;10958;50.892;3.992;2023-07-29T05:52:22;19.30;99.90
21592;DHT22;10958;50.892;3.992;2023-07-29T05:54:48;19.40;99.90
21592;DHT22;10958;50.892;3.992;2023-07-29T05:57:16;19.40;99.90
21592;DHT22;10958;50.892;3.992;2023-07-29T05:59:42;19.40;99.90
21592;DHT22;10958;50.892;3.992;2023-07-29T06:02:08;19.40;99.90
21592;DHT22;10958;50.892;3.992;2023-07-29T06:04:36;19.60;99.90
21592;DHT22;10958;50.892;3.992;2023-07-29T06:07:02;19.80;99.90
21592;DHT22;10958;50.892;3.992;2023-07-29T06:09:28;20.00;99.90
21592;DHT22;10958;50.892;3.992;2023-07-29T06:11:54;20.10;99.90
21592;DHT22;10958;50.892;3.992;2023-07-29T06:14:20;20.20;99.90
21592;DHT22;10958;50.892;3.992;2023-07-29T06:16:47;20.00;99.90
21592;DHT22;10958;50.892;3.992;2023-07-29T06:19:13;20.00;99.90
21592;DHT22;10958;50.892;3.992;2023-07-29T06:21:41;20.30;99.90
21592;DHT22;10958;50.892;3.992;2023-07-29T06:24:09;20.40;99.90
21592;DHT22;10958;50.892;3.992;2023-07-29T06:26:34;20.40;99.90
21592;DHT22;10958;50.892;3.992;2023-07-29T06:29:03;20.30;99.90
21592;DHT22;10958;50.892;3.992;2023-07-29T06:31:29;20.40;99.90
21592;DHT22;10958;50.892;3.992;2023-07-29T06:33:55;20.40;99.90
21592;DHT22;10958;50.892;3.992;2023-07-29T06:36:21;20.40;99.90
21592;DHT22;10958;50.892;3.992;2023-07-29T06:38:47;20.60;99.90
21592;DHT22;10958;50.892;3.992;2023-07-29T06:41:16;20.70;99.90
21592;DHT22;10958;50.892;3.992;2023-07-29T06:43:42;20.80;99.90
21592;DHT22;10958;50.892;3.992;2023-07-29T06:46:08;20.50;99.90
21592;DHT22;10958;50.892;3.992;2023-07-29T06:48:34;20.40;99.90
21592;DHT22;10958;50.892;3.992;2023-07-29T06:50:59;20.70;99.90
21592;DHT22;10958;50.892;3.992;2023-07-29T06:53:27;20.40;99.90
21592;DHT22;10958;50.892;3.992;2023-07-29T06:55:53;20.40;99.90
21592;DHT22;10958;50.892;3.992;2023-07-29T06:58:19;20.20;99.90
21592;DHT22;10958;50.892;3.992;2023-07-29T07:00:46;20.30;99.90
21592;DHT22;10958;50.892;3.992;2023-07-29T07:03:11;20.30;99.90
21592;DHT22;10958;50.892;3.992;2023-07-29T07:05:37;20.10;99.90
21592;DHT22;10958;50.892;3.992;2023-07-29T07:08:03;20.10;99.90
21592;DHT22;10958;50.892;3.992;2023-07-29T07:10:31;20.00;99.90
21592;DHT22;10958;50.892;3.992;2023-07-29T07:12:57;20.20;99.90
21592;DHT22;10958;50.892;3.992;2023-07-29T07:15:23;20.20;99.90
21592;DHT22;10958;50.892;3.992;2023-07-29T07:17:48;20.40;99.90
21592;DHT22;10958;50.892;3.992;2023-07-29T07:20:14;20.60;99.90
21592;DHT22;10958;50.892;3.992;2023-07-29T07:22:42;20.60;99.90
21592;DHT22;10958;50.892;3.992;2023-07-29T07:25:08;20.70;99.90
21592;DHT22;10958;50.892;3.992;2023-07-29T07:27:34;20.90;99.90
21592;DHT22;10958;50.892;3.992;2023-07-29T07:30:03;21.20;99.90
21592;DHT22;10958;50.892;3.992;2023-07-29T07:32:29;21.30;99.90
21592;DHT22;10958;50.892;3.992;2023-07-29T07:34:56;21.50;99.90
21592;DHT22;10958;50.892;3.992;2023-07-29T07:37:26;21.50;99.90
21592;DHT22;10958;50.892;3.992;2023-07-29T07:39:52;22.40;99.90
21592;DHT22;10958;50.892;3.992;2023-07-29T07:42:18;23.40;99.90
21592;DHT22;10958;50.892;3.992;2023-07-29T07:44:43;24.00;99.90
21592;DHT22;10958;50.892;3.992;2023-07-29T07:47:09;23.80;99.90
21592;DHT22;10958;50.892;3.992;2023-07-29T07:49:37;23.70;99.90
21592;DHT22;10958;50.892;3.992;2023-07-29T07:52:04;24.00;99.90
21592;DHT22;10958;50.892;3.992;2023-07-29T07:54:29;24.30;99.90
21592;DHT22;10958;50.892;3.992;2023-07-29T07:56:56;24.20;99.90
21592;DHT22;10958;50.892;3.992;2023-07-29T07:59:21;23.90;99.90
21592;DHT22;10958;50.892;3.992;2023-07-29T08:01:54;23.70;99.90
21592;DHT22;10958;50.892;3.992;2023-07-29T08:04:20;24.40;99.90
21592;DHT22;10958;50.892;3.992;2023-07-29T08:06:46;25.60;99.90
21592;DHT22;10958;50.892;3.992;2023-07-29T08:09:12;25.80;99.90
21592;DHT22;10958;50.892;3.992;2023-07-29T08:11:38;25.70;99.90
21592;DHT22;10958;50.892;3.992;2023-07-29T08:14:05;26.00;99.90
21592;DHT22;10958;50.892;3.992;2023-07-29T08:16:31;26.60;99.90
21592;DHT22;10958;50.892;3.992;2023-07-29T08:19:03;27.30;99.90
21592;DHT22;10958;50.892;3.992;2023-07-29T08:21:34;28.60;99.90
21592;DHT22;10958;50.892;3.992;2023-07-29T08:24:02;29.30;99.90
21592;DHT22;10958;50.892;3.992;2023-07-29T08:26:29;29.30;99.90
21592;DHT22;10958;50.892;3.992;2023-07-29T08:29:03;29.30;99.90
21592;DHT22;10958;50.892;3.992;2023-07-29T08:31:29;28.90;99.90
21592;DHT22;10958;50.892;3.992;2023-07-29T08:34:07;28.30;99.90
21592;DHT22;10958;50.892;3.992;2023-07-29T08:37:03;28.50;99.90
21592;DHT22;10958;50.892;3.992;2023-07-29T08:39:43;28.10;99.90
21592;DHT22;10958;50.892;3.992;2023-07-29T08:42:20;27.10;99.90
21592;DHT22;10958;50.892;3.992;2023-07-29T08:45:10;27.30;99.90
21592;DHT22;10958;50.892;3.992;2023-07-29T08:47:40;26.90;99.90
21592;DHT22;10958;50.892;3.992;2023-07-29T08:50:18;27.10;99.90
21592;DHT22;10958;50.892;3.992;2023-07-29T08:52:44;27.10;99.90
21592;DHT22;10958;50.892;3.992;2023-07-29T08:55:19;26.90;99.90
21592;DHT22;10958;50.892;3.992;2023-07-29T08:58:10;26.80;99.90
21592;DHT22;10958;50.892;3.992;2023-07-29T09:00:37;26.40;99.90
21592;DHT22;10958;50.892;3.992;2023-07-29T09:03:03;26.60;99.90
21592;DHT22;10958;50.892;3.992;2023-07-29T09:05:35;26.30;99.90
21592;DHT22;10958;50.892;3.992;2023-07-29T09:08:19;25.50;99.90
21592;DHT22;10958;50.892;3.992;2023-07-29T09:11:12;25.30;99.90
21592;DHT22;10958;50.892;3.992;2023-07-29T09:13:44;24.50;99.90
21592;DHT22;10958;50.892;3.992;2023-07-29T09:16:28;24.40;99.90
21592;DHT22;10958;50.892;3.992;2023-07-29T09:18:54;24.60;99.90
21592;DHT22;10958;50.892;3.992;2023-07-29T09:21:30;24.60;99.90
21592;DHT22;10958;50.892;3.992;2023-07-29T09:24:02;24.60;99.90
21592;DHT22;10958;50.892;3.992;2023-07-29T09:26:31;24.10;99.90
21592;DHT22;10958;50.892;3.992;2023-07-29T09:29:00;24.00;99.90
21592;DHT22;10958;50.892;3.992;2023-07-29T09:31:29;23.80;99.90
21592;DHT22;10958;50.892;3.992;2023-07-29T09:34:02;23.80;99.90
21592;DHT22;10958;50.892;3.992;2023-07-29T09:36:31;23.80;99.90
21592;DHT22;10958;50.892;3.992;2023-07-29T09:38:57;23.80;99.90
21592;DHT22;10958;50.892;3.992;2023-07-29T09:41:28;23.90;99.90
21592;DHT22;10958;50.892;3.992;2023-07-29T09:44:00;24.20;99.90
21592;DHT22;10958;50.892;3.992;2023-07-29T09:46:36;24.20;99.90
21592;DHT22;10958;50.892;3.992;2023-07-29T09:49:07;24.20;99.90
21592;DHT22;10958;50.892;3.992;2023-07-29T09:51:39;23.90;99.90
21592;DHT22;10958;50.892;3.992;2023-07-29T09:54:06;23.90;99.90
21592;DHT22;10958;50.892;3.992;2023-07-29T09:56:32;24.00;99.90
21592;DHT22;10958;50.892;3.992;2023-07-29T09:58:58;23.90;99.90
21592;DHT22;10958;50.892;3.992;2023-07-29T10:03:42;24.40;99.90
21592;DHT22;10958;50.892;3.992;2023-07-29T10:06:14;24.60;99.90
21592;DHT22;10958;50.892;3.992;2023-07-29T10:08:45;24.40;99.90
21592;DHT22;10958;50.892;3.992;2023-07-29T10:11:45;24.20;99.90
21592;DHT22;10958;50.892;3.992;2023-07-29T10:17:23;23.60;99.90
21592;DHT22;10958;50.892;3.992;2023-07-29T10:20:00;23.40;99.90
21592;DHT22;10958;50.892;3.992;2023-07-29T10:22:47;23.50;99.90
21592;DHT22;10958;50.892;3.992;2023-07-29T10:25:44;23.90;99.90
21592;DHT22;10958;50.892;3.992;2023-07-29T10:28:13;24.20;99.90
21592;DHT22;10958;50.892;3.992;2023-07-29T10:30:48;24.60;99.90
21592;DHT22;10958;50.892;3.992;2023-07-29T10:34:10;24.90;99.90
21592;DHT22;10958;50.892;3.992;2023-07-29T10:36:54;24.80;99.90
21592;DHT22;10958;50.892;3.992;2023-07-29T10:40:05;24.60;99.90
21592;DHT22;10958;50.892;3.992;2023-07-29T10:42:43;24.10;99.90
21592;DHT22;10958;50.892;3.992;2023-07-29T10:45:35;23.90;99.90
21592;DHT22;10958;50.892;3.992;2023-07-29T10:51:50;24.60;99.90
21592;DHT22;10958;50.892;3.992;2023-07-29T10:55:43;24.60;99.90
21592;DHT22;10958;50.892;3.992;2023-07-29T10:58:24;24.60;99.90
21592;DHT22;10958;50.892;3.992;2023-07-29T11:04:22;23.80;99.90
21592;DHT22;10958;50.892;3.992;2023-07-29T11:07:20;23.70;99.90
21592;DHT22;10958;50.892;3.992;2023-07-29T11:13:31;23.80;99.90
21592;DHT22;10958;50.892;3.992;2023-07-29T11:16:10;23.80;99.90
21592;DHT22;10958;50.892;3.992;2023-07-29T11:18:40;24.00;99.90
21592;DHT22;10958;50.892;3.992;2023-07-29T11:24:18;23.80;99.90
21592;DHT22;10958;50.892;3.992;2023-07-29T11:30:01;23.40;99.90
21592;DHT22;10958;50.892;3.992;2023-07-29T11:32:46;23.20;99.90
21592;DHT22;10958;50.892;3.992;2023-07-29T11:35:16;22.90;99.90
21592;DHT22;10958;50.892;3.992;2023-07-29T11:37:45;22.60;99.90
21592;DHT22;10958;50.892;3.992;2023-07-29T11:40:19;22.40;99.90
21592;DHT22;10958;50.892;3.992;2023-07-29T11:42:51;22.60;99.90
21592;DHT22;10958;50.892;3.992;2023-07-29T11:45:17;23.00;99.90
21592;DHT22;10958;50.892;3.992;2023-07-29T11:47:44;23.40;99.90
21592;DHT22;10958;50.892;3.992;2023-07-29T11:50:11;23.30;99.90
21592;DHT22;10958;50.892;3.992;2023-07-29T11:52:44;23.30;99.90
21592;DHT22;10958;50.892;3.992;2023-07-29T11:55:12;23.50;99.90
21592;DHT22;10958;50.892;3.992;2023-07-29T11:57:42;23.40;99.90
21592;DHT22;10958;50.892;3.992;2023-07-29T12:00:10;23.50;99.90
21592;DHT22;10958;50.892;3.992;2023-07-29T12:02:39;23.40;99.90
21592;DHT22;10958;50.892;3.992;2023-07-29T12:05:10;23.50;99.90
21592;DHT22;10958;50.892;3.992;2023-07-29T12:07:38;23.80;99.90
21592;DHT22;10958;50.892;3.992;2023-07-29T12:10:07;23.90;99.90
21592;DHT22;10958;50.892;3.992;2023-07-29T12:12:47;23.90;99.90
21592;DHT22;10958;50.892;3.992;2023-07-29T12:15:23;24.00;99.90
21592;DHT22;10958;50.892;3.992;2023-07-29T12:18:01;24.00;99.90
21592;DHT22;10958;50.892;3.992;2023-07-29T12:20:29;23.80;99.90
21592;DHT22;10958;50.892;3.992;2023-07-29T12:23:01;23.80;99.90
21592;DHT22;10958;50.892;3.992;2023-07-29T12:25:28;23.90;99.90
21592;DHT22;10958;50.892;3.992;2023-07-29T12:28:03;23.90;99.90
21592;DHT22;10958;50.892;3.992;2023-07-29T12:30:29;24.10;99.90
21592;DHT22;10958;50.892;3.992;2023-07-29T12:32:55;24.40;99.90
21592;DHT22;10958;50.892;3.992;2023-07-29T12:35:24;24.60;99.90
21592;DHT22;10958;50.892;3.992;2023-07-29T12:37:59;24.80;99.90
21592;DHT22;10958;50.892;3.992;2023-07-29T12:40:27;25.00;99.90
21592;DHT22;10958;50.892;3.992;2023-07-29T12:42:54;25.10;99.90
21592;DHT22;10958;50.892;3.992;2023-07-29T12:45:20;25.30;99.90
21592;DHT22;10958;50.892;3.992;2023-07-29T12:47:48;25.40;99.90
21592;DHT22;10958;50.892;3.992;2023-07-29T12:50:16;25.10;99.90
21592;DHT22;10958;50.892;3.992;2023-07-29T12:52:42;25.30;99.90
21592;DHT22;10958;50.892;3.992;2023-07-29T12:55:10;25.10;99.90
21592;DHT22;10958;50.892;3.992;2023-07-29T12:57:45;25.40;99.90
21592;DHT22;10958;50.892;3.992;2023-07-29T13:00:16;25.60;99.90
21592;DHT22;10958;50.892;3.992;2023-07-29T13:02:42;25.80;99.90
21592;DHT22;10958;50.892;3.992;2023-07-29T13:05:14;25.90;99.90
21592;DHT22;10958;50.892;3.992;2023-07-29T13:07:40;25.70;99.90
21592;DHT22;10958;50.892;3.992;2023-07-29T13:10:10;25.70;99.90
21592;DHT22;10958;50.892;3.992;2023-07-29T13:12:36;25.80;99.90
21592;DHT22;10958;50.892;3.992;2023-07-29T13:15:02;25.40;99.90
21592;DHT22;10958;50.892;3.992;2023-07-29T13:17:28;25.50;99.90
21592;DHT22;10958;50.892;3.992;2023-07-29T13:19:57;25.50;99.90
21592;DHT22;10958;50.892;3.992;2023-07-29T13:22:27;25.40;99.90
21592;DHT22;10958;50.892;3.992;2023-07-29T13:25:12;25.30;99.90
21592;DHT22;10958;50.892;3.992;2023-07-29T13:28:05;25.10;99.90
21592;DHT22;10958;50.892;3.992;2023-07-29T13:30:42;25.10;99.90
21592;DHT22;10958;50.892;3.992;2023-07-29T13:33:16;25.40;99.90
21592;DHT22;10958;50.892;3.992;2023-07-29T13:38:37;25.80;99.90
21592;DHT22;10958;50.892;3.992;2023-07-29T13:41:32;25.90;99.90
21592;DHT22;10958;50.892;3.992;2023-07-29T13:44:45;25.90;99.90
21592;DHT22;10958;50.892;3.992;2023-07-29T13:50:51;25.70;99.90
21592;DHT22;10958;50.892;3.992;2023-07-29T13:53:20;25.00;99.90
21592;DHT22;10958;50.892;3.992;2023-07-29T13:56:13;24.90;99.90
21592;DHT22;10958;50.892;3.992;2023-07-29T13:58:54;24.80;99.90
21592;DHT22;10958;50.892;3.992;2023-07-29T14:05:21;25.00;99.90
21592;DHT22;10958;50.892;3.992;2023-07-29T14:08:12;24.90;99.90
21592;DHT22;10958;50.892;3.992;2023-07-29T14:11:15;24.60;99.90
21592;DHT22;10958;50.892;3.992;2023-07-29T14:13:53;24.80;99.90
21592;DHT22;10958;50.892;3.992;2023-07-29T14:17:07;24.40;99.90
21592;DHT22;10958;50.892;3.992;2023-07-29T14:19:51;23.40;99.90
21592;DHT22;10958;50.892;3.992;2023-07-29T14:22:36;23.20;99.90
21592;DHT22;10958;50.892;3.992;2023-07-29T14:25:34;23.20;99.90
21592;DHT22;10958;50.892;3.992;2023-07-29T14:27:59;23.50;99.90
21592;DHT22;10958;50.892;3.992;2023-07-29T14:36:43;24.50;99.90
21592;DHT22;10958;50.892;3.992;2023-07-29T14:43:08;24.50;99.90
21592;DHT22;10958;50.892;3.992;2023-07-29T14:45:34;24.40;99.90
21592;DHT22;10958;50.892;3.992;2023-07-29T14:47:59;24.30;99.90
21592;DHT22;10958;50.892;3.992;2023-07-29T14:50:25;24.40;99.90
21592;DHT22;10958;50.892;3.992;2023-07-29T14:52:53;24.50;99.90
21592;DHT22;10958;50.892;3.992;2023-07-29T14:55:20;24.60;99.90
21592;DHT22;10958;50.892;3.992;2023-07-29T14:57:46;24.30;99.90
21592;DHT22;10958;50.892;3.992;2023-07-29T15:00:12;24.30;99.90
21592;DHT22;10958;50.892;3.992;2023-07-29T15:02:38;24.30;99.90
21592;DHT22;10958;50.892;3.992;2023-07-29T15:05:05;24.50;99.90
21592;DHT22;10958;50.892;3.992;2023-07-29T15:07:31;24.20;99.90
21592;DHT22;10958;50.892;3.992;2023-07-29T15:10:02;24.20;99.90
21592;DHT22;10958;50.892;3.992;2023-07-29T15:12:28;24.20;99.90
21592;DHT22;10958;50.892;3.992;2023-07-29T15:14:56;24.30;99.90
21592;DHT22;10958;50.892;3.992;2023-07-29T15:17:23;24.30;99.90
21592;DHT22;10958;50.892;3.992;2023-07-29T15:19:50;24.50;99.90
21592;DHT22;10958;50.892;3.992;2023-07-29T15:22:16;24.60;99.90
21592;DHT22;10958;50.892;3.992;2023-07-29T15:24:43;24.70;99.90
21592;DHT22;10958;50.892;3.992;2023-07-29T15:27:12;24.60;99.90
21592;DHT22;10958;50.892;3.992;2023-07-29T15:29:40;24.60;99.90
21592;DHT22;10958;50.892;3.992;2023-07-29T15:32:07;24.60;99.90
21592;DHT22;10958;50.892;3.992;2023-07-29T15:34:33;24.60;99.90
21592;DHT22;10958;50.892;3.992;2023-07-29T15:37:00;24.20;99.90
21592;DHT22;10958;50.892;3.992;2023-07-29T15:39:25;24.00;99.90
21592;DHT22;10958;50.892;3.992;2023-07-29T15:41:52;24.00;99.90
21592;DHT22;10958;50.892;3.992;2023-07-29T15:44:18;23.70;99.90
21592;DHT22;10958;50.892;3.992;2023-07-29T15:46:44;23.60;99.90
21592;DHT22;10958;50.892;3.992;2023-07-29T15:49:13;23.60;99.90
21592;DHT22;10958;50.892;3.992;2023-07-29T15:51:42;23.60;99.90
21592;DHT22;10958;50.892;3.992;2023-07-29T15:54:07;23.60;99.90
21592;DHT22;10958;50.892;3.992;2023-07-29T15:56:33;23.40;99.90
21592;DHT22;10958;50.892;3.992;2023-07-29T15:59:02;23.30;99.90
21592;DHT22;10958;50.892;3.992;2023-07-29T16:01:30;23.30;99.90
21592;DHT22;10958;50.892;3.992;2023-07-29T16:03:59;23.50;99.90
21592;DHT22;10958;50.892;3.992;2023-07-29T16:06:27;23.80;99.90
21592;DHT22;10958;50.892;3.992;2023-07-29T16:08:53;23.80;99.90
21592;DHT22;10958;50.892;3.992;2023-07-29T16:11:22;23.90;99.90
21592;DHT22;10958;50.892;3.992;2023-07-29T16:13:51;23.70;99.90
21592;DHT22;10958;50.892;3.992;2023-07-29T16:16:18;23.60;99.90
21592;DHT22;10958;50.892;3.992;2023-07-29T16:19:07;23.50;99.90
21592;DHT22;10958;50.892;3.992;2023-07-29T16:22:17;23.50;99.90
21592;DHT22;10958;50.892;3.992;2023-07-29T16:24:49;23.50;99.90
21592;DHT22;10958;50.892;3.992;2023-07-29T16:27:19;23.40;99.90
21592;DHT22;10958;50.892;3.992;2023-07-29T16:30:13;23.30;99.90
21592;DHT22;10958;50.892;3.992;2023-07-29T16:32:42;23.40;99.90
21592;DHT22;10958;50.892;3.992;2023-07-29T16:35:16;23.40;99.90
21592;DHT22;10958;50.892;3.992;2023-07-29T16:37:45;23.30;99.90
21592;DHT22;10958;50.892;3.992;2023-07-29T16:40:34;23.20;99.90
21592;DHT22;10958;50.892;3.992;2023-07-29T16:43:00;23.30;99.90
21592;DHT22;10958;50.892;3.992;2023-07-29T16:45:26;23.20;99.90